Time;durP1;ratioP1;P1;durP2;ratioP2;P2;SDS_P1;SDS_P2;PMS_P1;PMS_P2;Temp;Humidity;BMP_temperature;BMP_pressure;BME280_temperature;BME280_humidity;BME280_pressure;Samples;Min_cycle;Max_cycle;Signal;HPM_P1;HPM_P2
2021/07/14 00:01:03;;;;;;;39.58;22.58;;;19.50;98.90;;;;;;5034813;28;20033;-68
2021/07/14 00:03:28;;;;;;;35.58;22.05;;;19.40;98.80;;;;;;5034357;28;20036;-68
2021/07/14 00:05:54;;;;;;;37.80;22.50;;;19.50;98.90;;;;;;5031377;28;20488;-68
2021/07/14 00:08:20;;;;;;;36.42;23.05;;;19.40;98.80;;;;;;5033698;28;20456;-67
2021/07/14 00:10:45;;;;;;;36.45;21.42;;;19.50;98.90;;;;;;5026654;28;20036;-67
2021/07/14 00:23:31;;;;;;;33.63;21.00;;;19.40;98.80;;;;;;5026143;28;20035;-68
2021/07/14 00:25:57;;;;;;;38.17;22.55;;;19.40;98.80;;;;;;5034471;28;20041;-68
2021/07/14 00:28:23;;;;;;;36.53;21.60;;;19.40;99.10;;;;;;5032857;28;20044;-67
2021/07/14 00:30:52;;;;;;;37.25;22.95;;;19.40;98.80;;;;;;5035327;28;20026;-68
2021/07/14 00:33:17;;;;;;;38.72;20.92;;;19.40;98.80;;;;;;5031953;28;20014;-68
2021/07/14 00:35:43;;;;;;;35.35;21.77;;;19.50;98.90;;;;;;5034059;28;20028;-67
2021/07/14 00:38:10;;;;;;;34.75;22.48;;;19.40;98.80;;;;;;5032358;28;20059;-68
2021/07/14 00:40:36;;;;;;;36.95;20.75;;;19.40;98.80;;;;;;5034430;28;20017;-68
2021/07/14 00:43:01;;;;;;;36.00;22.25;;;19.40;98.80;;;;;;5033869;28;20108;-68
2021/07/14 00:45:27;;;;;;;36.95;21.08;;;19.40;98.90;;;;;;5032914;28;20107;-68
2021/07/14 00:47:56;;;;;;;34.60;22.15;;;19.40;99.10;;;;;;5033864;28;20079;-68
2021/07/14 00:50:22;;;;;;;33.35;20.88;;;19.40;98.80;;;;;;5033916;28;20412;-68
2021/07/14 00:52:48;;;;;;;34.22;22.20;;;19.40;98.90;;;;;;5031820;28;20116;-67
2021/07/14 00:55:13;;;;;;;36.88;21.83;;;19.40;98.90;;;;;;5034161;28;20029;-68
2021/07/14 00:57:39;;;;;;;34.45;21.42;;;19.40;98.80;;;;;;5032462;28;20026;-68
2021/07/14 01:00:10;;;;;;;31.38;21.52;;;19.40;98.80;;;;;;5032727;28;20025;-68
2021/07/14 01:02:36;;;;;;;35.78;21.58;;;19.40;98.80;;;;;;5029370;28;20035;-67
2021/07/14 01:05:10;;;;;;;32.97;22.05;;;19.40;98.90;;;;;;5029738;28;20108;-68
2021/07/14 01:07:44;;;;;;;32.20;20.35;;;19.40;98.90;;;;;;5027867;28;20025;-68
2021/07/14 01:10:20;;;;;;;31.63;19.92;;;19.40;98.90;;;;;;5029370;28;20442;-68
2021/07/14 01:13:06;;;;;;;29.85;20.38;;;19.30;98.80;;;;;;5031999;28;20029;-67
2021/07/14 01:15:59;;;;;;;31.27;20.23;;;19.40;98.80;;;;;;5031675;28;20075;-68
2021/07/14 01:18:53;;;;;;;32.75;20.90;;;19.30;98.80;;;;;;5026824;28;20061;-68
2021/07/14 01:21:32;;;;;;;30.25;20.75;;;19.40;98.80;;;;;;5019699;28;20116;-68
2021/07/14 01:24:40;;;;;;;31.60;19.50;;;19.30;98.80;;;;;;5033082;28;20418;-68
2021/07/14 01:27:11;;;;;;;33.03;21.05;;;19.30;98.80;;;;;;5015681;28;20065;-68
2021/07/14 01:29:48;;;;;;;33.55;21.67;;;19.30;98.90;;;;;;5031339;28;20036;-68
2021/07/14 01:32:16;;;;;;;36.28;20.98;;;19.30;98.90;;;;;;5031807;28;20045;-68
2021/07/14 01:34:50;;;;;;;34.38;21.17;;;19.30;99.20;;;;;;5032910;28;20025;-68
2021/07/14 01:37:21;;;;;;;28.15;19.05;;;19.30;98.90;;;;;;5030696;28;20040;-68
2021/07/14 01:39:48;;;;;;;33.60;22.08;;;19.30;98.90;;;;;;5031907;28;20079;-68
2021/07/14 01:42:14;;;;;;;29.52;20.55;;;19.30;98.90;;;;;;5032959;28;20021;-68
2021/07/14 01:44:41;;;;;;;32.90;22.05;;;19.30;98.90;;;;;;5024641;28;20030;-67
2021/07/14 01:47:07;;;;;;;31.42;20.63;;;19.30;98.90;;;;;;5027056;28;20032;-68
2021/07/14 01:49:36;;;;;;;31.50;21.02;;;19.30;98.90;;;;;;5019809;28;20420;-68
2021/07/14 01:52:07;;;;;;;31.95;19.90;;;19.30;98.90;;;;;;5030186;28;20427;-68
2021/07/14 01:54:34;;;;;;;29.63;19.75;;;19.30;99.00;;;;;;5033863;28;20029;-68
2021/07/14 01:57:01;;;;;;;32.92;20.55;;;19.30;99.00;;;;;;5032789;28;20104;-67
2021/07/14 01:59:29;;;;;;;33.70;20.48;;;19.30;99.00;;;;;;5028905;28;20052;-68
2021/07/14 02:01:57;;;;;;;35.30;21.50;;;19.30;99.00;;;;;;5030383;28;20053;-68
2021/07/14 02:04:32;;;;;;;33.78;21.65;;;19.30;99.00;;;;;;5021832;28;20037;-68
2021/07/14 02:07:15;;;;;;;34.13;21.42;;;19.20;99.00;;;;;;5031847;28;20285;-68
2021/07/14 02:09:43;;;;;;;30.60;19.48;;;19.20;99.00;;;;;;5031370;28;20395;-68
2021/07/14 02:12:17;;;;;;;33.13;21.40;;;19.20;99.00;;;;;;5021633;28;20476;-68
2021/07/14 02:14:51;;;;;;;37.72;22.17;;;19.20;99.00;;;;;;5029950;28;20467;-68
2021/07/14 02:17:20;;;;;;;38.22;24.20;;;19.20;99.10;;;;;;5029567;28;20108;-68
2021/07/14 02:20:14;;;;;;;38.40;24.40;;;19.20;99.10;;;;;;5029603;28;20037;-68
2021/07/14 02:22:39;;;;;;;42.40;23.77;;;19.20;99.10;;;;;;5032772;28;20028;-68
2021/07/14 02:25:06;;;;;;;42.22;23.98;;;19.20;99.10;;;;;;5031687;28;20037;-68
2021/07/14 02:27:32;;;;;;;40.53;24.65;;;19.10;99.20;;;;;;5031277;28;20487;-68
2021/07/14 02:29:58;;;;;;;41.58;26.23;;;19.10;99.20;;;;;;5021682;28;20045;-68
2021/07/14 02:32:24;;;;;;;42.13;24.15;;;19.00;99.30;;;;;;5027345;28;20125;-68
2021/07/14 02:34:53;;;;;;;43.05;25.17;;;19.00;99.30;;;;;;5028663;28;20506;-68
2021/07/14 02:37:37;;;;;;;42.72;24.73;;;19.00;99.40;;;;;;5028646;28;20726;-68
2021/07/14 02:40:05;;;;;;;43.22;24.45;;;18.90;99.50;;;;;;5029249;28;20084;-68
2021/07/14 02:42:33;;;;;;;38.83;23.40;;;18.80;99.60;;;;;;5031189;28;20033;-68
2021/07/14 02:45:03;;;;;;;46.75;25.20;;;18.80;99.70;;;;;;5031290;28;20041;-68
2021/07/14 02:47:36;;;;;;;37.58;24.00;;;18.80;99.80;;;;;;5026792;28;20439;-67
2021/07/14 02:50:05;;;;;;;39.97;24.60;;;18.80;99.80;;;;;;5028437;28;20030;-68
2021/07/14 02:52:32;;;;;;;39.60;24.08;;;18.80;99.90;;;;;;5032632;28;20034;-67
2021/07/14 02:54:59;;;;;;;46.72;25.13;;;18.70;99.90;;;;;;5025651;28;20050;-67
2021/07/14 02:57:26;;;;;;;40.70;23.58;;;18.70;99.90;;;;;;5030474;28;20043;-67
2021/07/14 02:59:54;;;;;;;45.53;24.88;;;18.70;99.90;;;;;;5029611;28;20075;-67
2021/07/14 03:02:21;;;;;;;41.78;25.27;;;18.70;99.90;;;;;;5021990;28;20065;-67
2021/07/14 03:04:51;;;;;;;40.97;23.50;;;18.60;99.90;;;;;;5030084;28;20036;-67
2021/07/14 03:07:21;;;;;;;40.75;24.20;;;18.60;99.90;;;;;;5030286;28;20057;-68
2021/07/14 03:09:47;;;;;;;39.88;24.38;;;18.60;99.90;;;;;;5017028;28;20034;-68
2021/07/14 03:12:15;;;;;;;40.78;24.33;;;18.60;99.90;;;;;;5027758;28;20399;-68
2021/07/14 03:14:46;;;;;;;43.85;25.38;;;18.60;99.90;;;;;;5022681;28;20044;-67
2021/07/14 03:17:14;;;;;;;43.40;25.42;;;18.60;99.90;;;;;;5031875;28;20040;-68
2021/07/14 03:19:41;;;;;;;42.08;24.40;;;18.60;99.90;;;;;;5031504;28;20033;-68
2021/07/14 03:22:08;;;;;;;41.50;24.17;;;18.60;99.90;;;;;;5019813;28;20362;-68
2021/07/14 03:24:34;;;;;;;41.45;23.60;;;18.50;99.90;;;;;;5018523;28;20091;-68
2021/07/14 03:27:05;;;;;;;42.53;24.35;;;18.60;99.90;;;;;;5030544;28;20044;-69
2021/07/14 03:29:33;;;;;;;43.15;23.30;;;18.60;99.90;;;;;;5022835;28;20395;-69
2021/07/14 03:32:01;;;;;;;35.22;23.08;;;18.60;99.90;;;;;;5028308;28;20064;-69
2021/07/14 03:34:26;;;;;;;35.47;23.98;;;18.50;99.90;;;;;;5031402;28;20108;-69
2021/07/14 03:36:53;;;;;;;32.40;21.80;;;18.50;99.90;;;;;;5031427;28;20148;-69
2021/07/14 03:39:20;;;;;;;38.60;22.05;;;18.60;99.90;;;;;;5030605;28;20021;-68
2021/07/14 03:41:47;;;;;;;32.97;20.85;;;18.60;99.90;;;;;;5023338;28;20519;-69
2021/07/14 03:44:15;;;;;;;34.92;21.15;;;18.60;99.90;;;;;;5028213;28;20407;-69
2021/07/14 03:46:42;;;;;;;30.58;21.67;;;18.50;99.90;;;;;;5030179;28;20037;-68
2021/07/14 03:49:08;;;;;;;34.67;22.25;;;18.50;99.90;;;;;;5025831;28;20101;-68
2021/07/14 03:51:34;;;;;;;35.65;22.33;;;18.50;99.90;;;;;;5032008;28;20182;-68
2021/07/14 03:54:00;;;;;;;34.28;20.88;;;18.60;99.90;;;;;;5033045;28;20057;-68
2021/07/14 03:56:27;;;;;;;29.42;21.10;;;18.60;99.90;;;;;;5033106;28;20033;-68
2021/07/14 03:58:56;;;;;;;36.97;22.65;;;18.50;99.90;;;;;;5032763;28;20032;-68
2021/07/14 04:01:22;;;;;;;36.65;22.15;;;18.50;99.90;;;;;;5030231;28;20044;-68
2021/07/14 04:03:51;;;;;;;35.97;22.42;;;18.60;99.90;;;;;;5034084;28;20112;-68
2021/07/14 04:06:19;;;;;;;35.60;23.85;;;18.50;99.90;;;;;;5032536;28;20044;-68
2021/07/14 04:08:48;;;;;;;36.40;23.83;;;18.50;99.90;;;;;;5025791;28;20442;-68
2021/07/14 04:11:15;;;;;;;34.28;22.50;;;18.50;99.90;;;;;;5033947;28;20548;-68
2021/07/14 04:13:41;;;;;;;34.75;22.48;;;18.60;99.90;;;;;;5028082;28;20029;-68
2021/07/14 04:16:07;;;;;;;33.40;22.38;;;18.60;99.90;;;;;;5027771;28;20036;-68
2021/07/14 04:18:33;;;;;;;36.75;23.55;;;18.60;99.90;;;;;;5035131;28;20026;-68
2021/07/14 04:20:59;;;;;;;37.65;23.25;;;18.60;99.90;;;;;;5030092;28;20442;-68
2021/07/14 04:23:24;;;;;;;35.50;23.77;;;18.60;99.90;;;;;;5031036;28;20049;-68
2021/07/14 04:25:50;;;;;;;35.92;23.40;;;18.60;99.90;;;;;;5022974;28;20030;-68
2021/07/14 04:28:16;;;;;;;37.92;23.40;;;18.60;99.90;;;;;;5033620;28;20445;-68
2021/07/14 04:30:42;;;;;;;35.83;23.77;;;18.60;99.90;;;;;;5031690;28;20029;-67
2021/07/14 04:33:08;;;;;;;38.35;24.30;;;18.60;99.90;;;;;;5034333;28;20043;-68
2021/07/14 04:35:34;;;;;;;38.08;23.58;;;18.60;99.90;;;;;;5035052;28;20025;-68
2021/07/14 04:37:59;;;;;;;33.47;23.38;;;18.60;99.90;;;;;;5032091;28;20411;-68
2021/07/14 04:40:25;;;;;;;38.25;24.42;;;18.60;99.90;;;;;;5034159;28;20034;-68
2021/07/14 04:42:52;;;;;;;38.80;25.20;;;18.60;99.90;;;;;;5032422;28;20029;-68
2021/07/14 04:45:18;;;;;;;41.15;25.13;;;18.70;99.90;;;;;;5027670;28;20056;-68
2021/07/14 04:47:45;;;;;;;36.08;23.48;;;18.60;99.90;;;;;;5034512;28;20033;-68
2021/07/14 04:50:10;;;;;;;34.88;22.95;;;18.70;99.90;;;;;;5032684;28;20479;-67
2021/07/14 04:52:36;;;;;;;33.70;22.83;;;18.70;99.90;;;;;;5032488;28;20155;-68
2021/07/14 04:55:01;;;;;;;36.88;22.65;;;18.70;99.90;;;;;;5029730;28;20040;-67
2021/07/14 04:57:27;;;;;;;35.05;23.35;;;18.60;99.90;;;;;;5026437;28;20388;-67
2021/07/14 04:59:52;;;;;;;35.53;22.83;;;18.60;99.90;;;;;;5029654;28;20267;-68
2021/07/14 05:02:18;;;;;;;35.85;21.10;;;18.70;99.90;;;;;;5033235;28;20029;-68
2021/07/14 05:04:43;;;;;;;37.40;24.48;;;18.70;99.90;;;;;;5024721;28;20033;-69
2021/07/14 05:07:09;;;;;;;38.67;24.52;;;18.70;99.90;;;;;;5032692;28;20069;-69
2021/07/14 05:09:35;;;;;;;37.75;22.92;;;18.70;99.90;;;;;;5027824;28;20034;-68
2021/07/14 05:12:00;;;;;;;35.85;22.67;;;18.70;99.90;;;;;;5031842;28;20029;-69
2021/07/14 05:14:26;;;;;;;32.65;21.77;;;18.70;99.90;;;;;;5032944;28;20026;-69
2021/07/14 05:16:51;;;;;;;32.03;21.73;;;18.80;99.90;;;;;;5028363;28;20075;-69
2021/07/14 05:19:17;;;;;;;31.35;22.77;;;18.70;99.90;;;;;;5032041;28;20104;-69
2021/07/14 05:21:43;;;;;;;34.58;22.23;;;18.70;99.90;;;;;;5033035;28;20032;-68
2021/07/14 05:24:09;;;;;;;34.25;21.70;;;18.80;99.90;;;;;;5033490;28;20037;-68
2021/07/14 05:26:35;;;;;;;30.38;21.23;;;18.80;99.90;;;;;;5032095;28;20036;-69
2021/07/14 05:29:01;;;;;;;34.58;24.13;;;18.80;99.90;;;;;;5032776;28;20357;-69
2021/07/14 05:31:26;;;;;;;32.58;23.92;;;18.80;99.90;;;;;;5029701;28;20025;-68
2021/07/14 05:33:52;;;;;;;32.97;23.45;;;18.80;99.90;;;;;;5029102;28;20028;-68
2021/07/14 05:36:17;;;;;;;35.05;24.15;;;18.80;99.90;;;;;;5028178;28;20033;-68
2021/07/14 05:38:43;;;;;;;33.88;23.30;;;18.80;99.90;;;;;;5027949;28;20048;-68
2021/07/14 05:41:09;;;;;;;35.42;24.55;;;18.90;99.90;;;;;;5030014;28;20119;-68
2021/07/14 05:43:36;;;;;;;37.80;23.33;;;18.80;99.90;;;;;;5031869;28;20159;-68
2021/07/14 05:46:03;;;;;;;35.88;23.15;;;18.80;99.90;;;;;;5026575;28;20033;-68
2021/07/14 05:48:29;;;;;;;32.35;22.70;;;18.90;99.90;;;;;;5025786;28;20171;-68
2021/07/14 05:50:55;;;;;;;38.63;25.63;;;18.90;99.90;;;;;;5030913;28;20104;-68
2021/07/14 05:53:21;;;;;;;37.67;23.48;;;18.90;99.90;;;;;;5027418;28;20033;-68
2021/07/14 05:55:47;;;;;;;37.35;23.67;;;18.90;99.90;;;;;;5025089;28;20022;-68
2021/07/14 05:58:13;;;;;;;37.42;25.05;;;18.90;99.90;;;;;;5018608;28;20025;-68
2021/07/14 06:00:39;;;;;;;40.17;24.42;;;18.90;99.90;;;;;;5016695;28;20491;-67
2021/07/14 06:03:05;;;;;;;39.28;23.90;;;18.90;99.90;;;;;;5025665;28;20025;-67
2021/07/14 06:05:31;;;;;;;32.70;23.17;;;19.00;99.90;;;;;;5026010;28;20132;-67
2021/07/14 06:07:57;;;;;;;39.35;24.27;;;19.00;99.90;;;;;;5029189;28;20115;-67
2021/07/14 06:10:22;;;;;;;40.05;25.67;;;19.00;99.90;;;;;;5031634;28;20079;-68
2021/07/14 06:12:50;;;;;;;36.42;24.15;;;19.00;99.90;;;;;;5032452;28;20033;-68
2021/07/14 06:15:15;;;;;;;37.03;24.85;;;19.00;99.90;;;;;;5031995;28;20040;-68
2021/07/14 06:17:41;;;;;;;43.47;26.02;;;19.00;99.90;;;;;;5029845;28;20038;-68
2021/07/14 06:20:07;;;;;;;38.97;25.73;;;19.00;99.90;;;;;;5031081;28;20441;-68
2021/07/14 06:22:33;;;;;;;38.33;24.58;;;19.00;99.90;;;;;;5031045;28;20025;-68
2021/07/14 06:24:59;;;;;;;48.53;26.73;;;19.00;99.90;;;;;;5032718;28;20028;-68
2021/07/14 06:27:24;;;;;;;41.78;25.65;;;19.00;99.90;;;;;;5029350;28;20029;-68
2021/07/14 06:29:50;;;;;;;47.33;25.92;;;19.00;99.90;;;;;;5029860;28;20381;-68
2021/07/14 06:32:15;;;;;;;38.33;24.58;;;19.00;99.90;;;;;;5030278;28;20031;-68
2021/07/14 06:34:41;;;;;;;35.08;24.25;;;19.00;99.90;;;;;;5030972;28;20033;-68
2021/07/14 06:37:07;;;;;;;38.35;24.92;;;19.00;99.90;;;;;;5032877;28;20106;-68
2021/07/14 06:39:32;;;;;;;38.22;24.63;;;19.10;99.90;;;;;;5027058;28;20479;-66
2021/07/14 06:41:59;;;;;;;43.22;25.52;;;19.10;99.90;;;;;;5027422;28;20131;-66
2021/07/14 06:44:25;;;;;;;41.50;25.35;;;19.10;99.90;;;;;;5032212;28;20116;-67
2021/07/14 06:46:51;;;;;;;38.70;25.05;;;19.10;99.90;;;;;;5029734;28;20108;-67
2021/07/14 06:49:16;;;;;;;41.50;26.15;;;19.10;99.90;;;;;;5033734;28;20029;-67
2021/07/14 06:51:42;;;;;;;38.70;25.05;;;19.10;99.90;;;;;;5032047;28;20034;-67
2021/07/14 06:54:08;;;;;;;38.45;24.25;;;19.10;99.80;;;;;;5027161;28;20030;-67
2021/07/14 06:56:33;;;;;;;35.78;25.40;;;19.10;99.80;;;;;;5032068;28;20037;-66
2021/07/14 06:58:59;;;;;;;35.58;23.50;;;19.10;99.80;;;;;;5029184;28;20067;-67
2021/07/14 07:01:24;;;;;;;44.20;24.60;;;19.10;99.80;;;;;;5029757;28;20041;-66
2021/07/14 07:03:50;;;;;;;40.38;25.30;;;19.00;99.80;;;;;;5029206;28;20060;-67
2021/07/14 07:06:15;;;;;;;43.83;25.85;;;19.00;99.90;;;;;;5026858;28;20025;-67
2021/07/14 07:08:41;;;;;;;38.10;23.73;;;19.00;99.90;;;;;;5028105;28;20038;-67
2021/07/14 07:11:06;;;;;;;41.40;25.10;;;19.00;99.90;;;;;;5032089;28;20061;-67
2021/07/14 07:13:32;;;;;;;39.08;24.50;;;19.00;99.90;;;;;;5027859;28;20060;-66
2021/07/14 07:15:59;;;;;;;39.38;25.20;;;19.00;99.90;;;;;;5025778;28;20087;-67
2021/07/14 07:18:24;;;;;;;40.25;24.70;;;19.00;99.90;;;;;;5032870;28;20029;-67
2021/07/14 07:20:50;;;;;;;42.95;25.42;;;19.00;99.90;;;;;;5030920;28;20384;-68
2021/07/14 07:23:16;;;;;;;39.60;24.00;;;19.00;99.90;;;;;;5025756;28;20391;-68
2021/07/14 07:25:42;;;;;;;36.95;23.58;;;19.00;99.90;;;;;;5030237;28;20125;-68
2021/07/14 07:28:17;;;;;;;40.65;25.45;;;19.00;99.90;;;;;;5034622;28;20030;-68
2021/07/14 07:30:42;;;;;;;37.88;24.40;;;18.90;99.90;;;;;;5035354;28;20033;-67
2021/07/14 07:33:08;;;;;;;35.42;22.60;;;18.90;99.90;;;;;;5033155;28;20037;-67
2021/07/14 07:35:34;;;;;;;40.80;25.25;;;18.90;99.90;;;;;;5029639;28;20393;-67
2021/07/14 07:38:00;;;;;;;38.80;24.73;;;18.90;99.90;;;;;;5031228;28;20038;-67
2021/07/14 07:40:26;;;;;;;38.50;24.15;;;18.80;99.90;;;;;;5035020;28;20030;-67
2021/07/14 07:42:52;;;;;;;40.55;24.35;;;18.90;99.90;;;;;;5033809;28;20122;-67
2021/07/14 07:45:17;;;;;;;38.75;24.90;;;18.90;99.90;;;;;;5034809;28;20077;-67
2021/07/14 07:47:43;;;;;;;38.97;25.45;;;18.90;99.90;;;;;;5034527;28;20108;-67
2021/07/14 07:50:13;;;;;;;37.03;23.45;;;18.90;99.90;;;;;;5033733;28;20041;-68
2021/07/14 07:52:39;;;;;;;41.78;25.52;;;18.90;99.90;;;;;;5030832;28;20045;-67
2021/07/14 07:55:09;;;;;;;42.45;24.90;;;18.90;99.90;;;;;;5034515;28;20021;-67
2021/07/14 07:57:35;;;;;;;43.53;26.25;;;18.90;99.90;;;;;;5033889;28;20104;-67
2021/07/14 08:00:00;;;;;;;43.58;27.38;;;18.90;99.90;;;;;;5032055;28;20101;-67
2021/07/14 08:02:26;;;;;;;44.65;26.60;;;18.90;99.90;;;;;;5033697;28;20044;-66
2021/07/14 08:04:51;;;;;;;41.72;25.45;;;18.80;99.90;;;;;;5035665;28;20030;-67
2021/07/14 08:07:17;;;;;;;45.35;26.13;;;18.80;99.90;;;;;;5029209;28;20033;-67
2021/07/14 08:09:43;;;;;;;38.30;25.50;;;18.80;99.90;;;;;;5033487;28;20037;-68
2021/07/14 08:12:08;;;;;;;45.08;27.02;;;18.80;99.90;;;;;;5034897;28;20500;-67
2021/07/14 08:14:34;;;;;;;37.90;25.08;;;18.80;99.90;;;;;;5031422;28;20102;-68
2021/07/14 08:16:59;;;;;;;40.58;25.15;;;18.80;99.90;;;;;;5033776;28;20041;-68
2021/07/14 08:19:25;;;;;;;41.10;26.00;;;18.70;99.90;;;;;;5030291;28;20030;-68
2021/07/14 08:21:50;;;;;;;41.13;25.60;;;18.70;99.90;;;;;;5033732;28;20080;-68
2021/07/14 08:24:16;;;;;;;44.38;27.67;;;18.70;99.90;;;;;;5034285;28;20480;-68
2021/07/14 08:26:42;;;;;;;46.72;27.50;;;18.70;99.90;;;;;;5034687;28;20036;-68
2021/07/14 08:29:07;;;;;;;46.03;27.00;;;18.70;99.90;;;;;;5034431;28;20041;-68
2021/07/14 08:31:34;;;;;;;41.28;26.33;;;18.70;99.90;;;;;;5034866;28;20044;-68
2021/07/14 08:33:59;;;;;;;48.08;27.85;;;18.70;99.90;;;;;;5033585;28;20056;-68
2021/07/14 08:36:25;;;;;;;48.60;28.52;;;18.70;99.90;;;;;;5034710;28;20053;-68
2021/07/14 08:38:51;;;;;;;49.58;30.95;;;18.70;99.90;;;;;;5030228;28;20361;-68
2021/07/14 08:41:19;;;;;;;48.10;27.70;;;18.70;99.90;;;;;;5033791;28;20029;-68
2021/07/14 08:43:47;;;;;;;49.42;29.38;;;18.70;99.90;;;;;;5035271;28;20046;-68
2021/07/14 08:46:13;;;;;;;45.80;27.17;;;18.70;99.90;;;;;;5031026;28;20500;-68
2021/07/14 08:48:39;;;;;;;50.72;28.60;;;18.70;99.90;;;;;;5032081;28;20033;-68
2021/07/14 08:51:06;;;;;;;54.45;30.00;;;18.70;99.90;;;;;;5023910;28;20018;-68
2021/07/14 08:53:33;;;;;;;48.47;30.58;;;18.70;99.90;;;;;;5032604;28;20029;-68
2021/07/14 08:55:59;;;;;;;47.47;27.90;;;18.70;99.90;;;;;;5034091;28;20021;-68
2021/07/14 08:58:26;;;;;;;52.53;29.73;;;18.70;99.90;;;;;;5033262;28;20040;-68
2021/07/14 09:00:55;;;;;;;48.78;29.13;;;18.80;99.90;;;;;;5027025;28;20479;-68
2021/07/14 09:03:20;;;;;;;51.35;30.10;;;18.80;99.90;;;;;;5034973;28;20387;-68
2021/07/14 09:05:46;;;;;;;52.75;29.27;;;18.80;99.90;;;;;;5032765;28;20112;-67
2021/07/14 09:08:12;;;;;;;51.47;29.95;;;18.80;99.90;;;;;;5031196;28;20026;-68
2021/07/14 09:10:40;;;;;;;58.80;31.52;;;18.80;99.90;;;;;;5029213;28;20073;-68
2021/07/14 09:13:07;;;;;;;54.65;30.90;;;18.80;99.80;;;;;;5032568;28;20112;-67
2021/07/14 09:15:42;;;;;;;59.30;33.33;;;18.80;99.80;;;;;;5030719;28;20030;-67
2021/07/14 09:18:11;;;;;;;58.33;32.42;;;18.80;99.80;;;;;;5025991;28;20049;-67
2021/07/14 09:20:37;;;;;;;60.28;32.13;;;18.80;99.80;;;;;;5024881;28;20017;-67
2021/07/14 09:23:17;;;;;;;53.50;30.88;;;18.80;99.90;;;;;;5031289;28;20022;-67
2021/07/14 09:25:52;;;;;;;53.72;30.60;;;18.80;99.80;;;;;;5032313;28;20034;-67
2021/07/14 09:28:20;;;;;;;59.97;31.98;;;18.80;99.80;;;;;;5032723;28;20487;-68
2021/07/14 09:30:48;;;;;;;52.90;30.83;;;18.80;99.90;;;;;;5032915;28;20075;-68
2021/07/14 09:33:16;;;;;;;53.63;31.88;;;18.80;99.80;;;;;;5031533;28;20091;-67
2021/07/14 09:35:45;;;;;;;49.10;29.77;;;18.80;99.80;;;;;;5033258;28;20422;-67
2021/07/14 09:38:15;;;;;;;54.80;29.70;;;18.80;99.80;;;;;;5023804;28;20065;-68
2021/07/14 09:40:43;;;;;;;49.70;30.40;;;18.80;99.90;;;;;;5043192;28;20032;-66
2021/07/14 09:43:11;;;;;;;52.92;30.38;;;18.80;99.80;;;;;;5030921;28;20043;-67
2021/07/14 09:45:39;;;;;;;50.35;28.52;;;18.90;99.80;;;;;;5031066;28;20566;-68
2021/07/14 09:48:05;;;;;;;46.47;28.48;;;18.80;99.70;;;;;;5032803;28;20044;-68
2021/07/14 09:50:42;;;;;;;46.83;27.35;;;18.80;99.80;;;;;;5031556;28;20041;-68
2021/07/14 09:53:11;;;;;;;44.95;26.77;;;18.90;99.70;;;;;;5031960;28;20037;-68
2021/07/14 09:55:38;;;;;;;41.00;25.70;;;18.90;99.70;;;;;;5028456;28;20093;-68
2021/07/14 09:58:15;;;;;;;45.22;26.10;;;18.90;99.80;;;;;;5021236;28;20491;-68
2021/07/14 10:00:46;;;;;;;41.50;25.73;;;18.90;99.70;;;;;;5026622;28;20021;-68
2021/07/14 10:03:31;;;;;;;41.90;26.92;;;18.90;99.70;;;;;;5032809;28;20407;-68
2021/07/14 10:06:11;;;;;;;37.20;24.75;;;18.90;99.70;;;;;;5030029;28;20025;-68
2021/07/14 10:08:48;;;;;;;40.30;26.52;;;18.90;99.70;;;;;;5031967;28;20025;-68
2021/07/14 10:11:16;;;;;;;42.03;27.02;;;18.90;99.90;;;;;;5019835;28;20021;-68
2021/07/14 10:14:06;;;;;;;42.45;26.40;;;18.90;99.60;;;;;;5024603;28;20029;-68
2021/07/14 10:16:36;;;;;;;42.65;26.75;;;18.90;99.60;;;;;;5029926;28;20056;-68
2021/07/14 10:19:15;;;;;;;41.40;25.02;;;18.90;99.60;;;;;;5025438;28;20026;-68
2021/07/14 10:21:46;;;;;;;35.72;22.67;;;18.90;99.60;;;;;;5022932;28;20076;-69
2021/07/14 10:24:14;;;;;;;39.75;23.65;;;18.90;99.70;;;;;;5020336;28;20026;-68
2021/07/14 10:26:42;;;;;;;38.17;24.92;;;19.00;99.70;;;;;;5025128;28;20112;-69
2021/07/14 10:29:09;;;;;;;39.08;24.92;;;19.00;99.70;;;;;;5028961;28;20044;-68
2021/07/14 10:31:36;;;;;;;41.55;25.58;;;19.10;99.70;;;;;;5017690;28;20476;-68
2021/07/14 10:34:04;;;;;;;38.63;23.90;;;19.10;99.80;;;;;;5026335;28;20040;-68
2021/07/14 10:36:35;;;;;;;37.80;23.98;;;19.10;99.60;;;;;;5025871;28;20084;-68
2021/07/14 10:39:07;;;;;;;39.58;23.90;;;19.10;99.70;;;;;;5029462;28;20017;-69
2021/07/14 10:41:33;;;;;;;40.63;24.10;;;19.10;99.60;;;;;;5032078;28;20384;-69
2021/07/14 10:44:00;;;;;;;36.47;23.55;;;19.10;99.60;;;;;;5032053;28;20029;-68
2021/07/14 10:46:28;;;;;;;38.88;23.63;;;19.10;99.60;;;;;;5021420;28;20049;-67
2021/07/14 10:48:56;;;;;;;38.80;23.48;;;19.10;99.60;;;;;;5030959;28;20033;-68
2021/07/14 10:51:23;;;;;;;38.05;22.00;;;19.10;99.60;;;;;;5031577;28;20037;-69
2021/07/14 10:53:53;;;;;;;38.95;22.70;;;19.10;99.70;;;;;;5015835;28;20393;-68
2021/07/14 10:56:19;;;;;;;37.92;23.70;;;19.20;99.70;;;;;;5031947;28;20480;-68
2021/07/14 10:58:46;;;;;;;39.17;23.02;;;19.20;99.70;;;;;;5030912;28;20032;-68
2021/07/14 11:01:11;;;;;;;35.88;21.35;;;19.20;99.60;;;;;;5028212;28;20088;-68
2021/07/14 11:03:45;;;;;;;36.58;22.52;;;19.20;99.50;;;;;;5030498;28;20182;-68
2021/07/14 11:06:14;;;;;;;39.45;23.10;;;19.20;99.50;;;;;;5031881;28;20030;-68
2021/07/14 11:08:43;;;;;;;39.38;23.30;;;19.20;99.50;;;;;;5031008;28;20025;-69
2021/07/14 11:11:11;;;;;;;39.88;21.83;;;19.20;99.80;;;;;;5031906;28;20022;-69
2021/07/14 11:13:39;;;;;;;37.47;22.08;;;19.20;99.50;;;;;;5031105;28;20026;-69
2021/07/14 11:16:25;;;;;;;39.60;22.10;;;19.20;99.40;;;;;;4996304;28;1021987;-68
2021/07/14 11:19:11;;;;;;;41.72;23.15;;;19.20;99.50;;;;;;5031505;28;20100;-69
2021/07/14 11:22:05;;;;;;;36.75;21.20;;;19.30;99.50;;;;;;5032636;28;20033;-68
2021/07/14 11:24:41;;;;;;;34.95;19.98;;;19.30;99.30;;;;;;5032126;28;20060;-68
2021/07/14 11:27:22;;;;;;;31.20;20.05;;;19.30;99.30;;;;;;5032540;28;20499;-68
2021/07/14 11:29:48;;;;;;;38.90;21.20;;;19.30;99.30;;;;;;5021285;28;20084;-68
2021/07/14 11:32:37;;;;;;;34.95;21.17;;;19.30;99.30;;;;;;5022477;28;20357;-68
2021/07/14 11:35:07;;;;;;;34.72;20.95;;;19.30;99.30;;;;;;5021317;28;20026;-68
2021/07/14 11:37:35;;;;;;;36.35;20.92;;;19.30;99.20;;;;;;5029306;28;20040;-69
2021/07/14 11:40:19;;;;;;;35.88;21.45;;;19.20;99.10;;;;;;5031877;28;20025;-68
2021/07/14 11:43:17;;;;;;;36.17;20.75;;;19.30;99.20;;;;;;5028188;28;20510;-68
2021/07/14 11:45:49;;;;;;;30.77;18.98;;;19.30;99.20;;;;;;5024781;28;20057;-68
2021/07/14 11:48:26;;;;;;;34.88;20.33;;;19.30;99.20;;;;;;5028341;28;20507;-69
2021/07/14 11:51:00;;;;;;;33.88;19.83;;;19.40;99.20;;;;;;5031371;28;20060;-68
2021/07/14 11:53:34;;;;;;;38.00;20.45;;;19.40;99.20;;;;;;5029317;28;20037;-69
2021/07/14 11:56:10;;;;;;;36.78;22.27;;;19.50;99.10;;;;;;5024875;28;20169;-69
2021/07/14 11:59:06;;;;;;;34.45;20.17;;;19.50;99.00;;;;;;5031764;28;20495;-68
2021/07/14 12:01:32;;;;;;;36.05;19.90;;;19.60;99.00;;;;;;5031499;28;20076;-68
2021/07/14 12:04:00;;;;;;;35.25;21.23;;;19.60;98.90;;;;;;5014477;28;20425;-68
2021/07/14 12:06:35;;;;;;;40.03;21.35;;;19.70;98.80;;;;;;5021035;28;20026;-69
2021/07/14 12:09:04;;;;;;;34.22;19.90;;;19.70;98.60;;;;;;5028741;28;20017;-69
2021/07/14 12:11:29;;;;;;;36.67;21.08;;;19.70;98.60;;;;;;5028451;28;20026;-68
2021/07/14 12:13:56;;;;;;;37.95;22.20;;;19.80;98.40;;;;;;5034980;28;20030;-70
2021/07/14 12:16:30;;;;;;;36.35;21.27;;;19.80;98.30;;;;;;5031716;28;20123;-68
2021/07/14 12:18:57;;;;;;;40.92;22.63;;;19.80;98.20;;;;;;5033387;28;20409;-71
2021/07/14 12:21:36;;;;;;;35.47;21.98;;;19.70;98.20;;;;;;5035599;28;20032;-70
2021/07/14 12:24:02;;;;;;;36.30;20.45;;;19.70;98.30;;;;;;5026649;28;20057;-70
2021/07/14 12:26:28;;;;;;;37.47;20.90;;;19.60;98.30;;;;;;5035485;28;20115;-69
2021/07/14 12:28:54;;;;;;;37.95;21.83;;;19.60;98.40;;;;;;5034944;28;20029;-67
2021/07/14 12:31:20;;;;;;;39.50;22.75;;;19.60;98.40;;;;;;5033047;28;20026;-68
2021/07/14 12:33:54;;;;;;;41.50;22.92;;;19.50;98.40;;;;;;5035086;28;20053;-69
2021/07/14 12:36:21;;;;;;;35.67;21.08;;;19.50;98.50;;;;;;5032445;28;20043;-69
2021/07/14 12:38:57;;;;;;;40.83;23.02;;;19.40;98.70;;;;;;5018483;28;20489;-68
2021/07/14 12:41:24;;;;;;;40.08;22.73;;;19.50;98.80;;;;;;5027438;28;20033;-69
2021/07/14 12:44:07;;;;;;;42.03;23.02;;;19.40;98.80;;;;;;5027918;28;20480;-70